sensor_id;sensor_type;location;lat;lon;timestamp;pressure;altitude;pressure_sealevel;temperature;humidity
84841;BME280;75088;53.114;18.040;2024-01-15T00:00:55;98850.79;;;1.42;80.74
84841;BME280;75088;53.114;18.040;2024-01-15T00:02:28;98857.44;;;1.40;80.91
84841;BME280;75088;53.114;18.040;2024-01-15T00:03:35;98852.02;;;1.40;80.80
84841;BME280;75088;53.114;18.040;2024-01-15T00:04:42;98847.64;;;1.41;80.96
84841;BME280;75088;53.114;18.040;2024-01-15T00:05:49;98839.95;;;1.39;81.05
84841;BME280;75088;53.114;18.040;2024-01-15T00:06:56;98840.12;;;1.40;80.86
84841;BME280;75088;53.114;18.040;2024-01-15T00:08:03;98841.70;;;1.39;80.96
84841;BME280;75088;53.114;18.040;2024-01-15T00:09:10;98832.27;;;1.37;81.14
84841;BME280;75088;53.114;18.040;2024-01-15T00:10:17;98830.90;;;1.35;81.25
84841;BME280;75088;53.114;18.040;2024-01-15T00:11:24;98831.08;;;1.36;80.87
84841;BME280;75088;53.114;18.040;2024-01-15T00:12:31;98829.80;;;1.37;80.82
84841;BME280;75088;53.114;18.040;2024-01-15T00:13:38;98825.25;;;1.38;81.08
84841;BME280;75088;53.114;18.040;2024-01-15T00:14:45;98820.88;;;1.39;80.88
84841;BME280;75088;53.114;18.040;2024-01-15T00:15:52;98821.05;;;1.38;80.84
84841;BME280;75088;53.114;18.040;2024-01-15T00:16:59;98823.50;;;1.39;80.88
84841;BME280;75088;53.114;18.040;2024-01-15T00:18:06;98818.60;;;1.38;80.91
84841;BME280;75088;53.114;18.040;2024-01-15T00:19:13;98815.31;;;1.36;81.09
84841;BME280;75088;53.114;18.040;2024-01-15T00:20:20;98816.73;;;1.36;80.95
84841;BME280;75088;53.114;18.040;2024-01-15T00:21:27;98817.60;;;1.35;81.13
84841;BME280;75088;53.114;18.040;2024-01-15T00:22:34;98823.20;;;1.34;81.53
84841;BME280;75088;53.114;18.040;2024-01-15T00:23:43;98819.36;;;1.33;81.31
84841;BME280;75088;53.114;18.040;2024-01-15T00:24:51;98806.06;;;1.33;81.26
84841;BME280;75088;53.114;18.040;2024-01-15T00:25:58;98813.58;;;1.34;81.03
84841;BME280;75088;53.114;18.040;2024-01-15T00:27:05;98807.11;;;1.33;81.36
84841;BME280;75088;53.114;18.040;2024-01-15T00:28:12;98807.64;;;1.33;81.08
84841;BME280;75088;53.114;18.040;2024-01-15T00:29:19;98807.29;;;1.32;81.21
84841;BME280;75088;53.114;18.040;2024-01-15T00:30:26;98802.21;;;1.31;81.16
84841;BME280;75088;53.114;18.040;2024-01-15T00:31:33;98796.98;;;1.30;81.09
84841;BME280;75088;53.114;18.040;2024-01-15T00:32:40;98796.98;;;1.30;81.40
84841;BME280;75088;53.114;18.040;2024-01-15T00:33:47;98792.77;;;1.29;81.35
84841;BME280;75088;53.114;18.040;2024-01-15T00:34:54;98790.51;;;1.30;81.28
84841;BME280;75088;53.114;18.040;2024-01-15T00:36:01;98793.66;;;1.28;81.30
84841;BME280;75088;53.114;18.040;2024-01-15T00:37:08;98790.34;;;1.27;81.20
84841;BME280;75088;53.114;18.040;2024-01-15T00:38:15;98788.77;;;1.25;81.37
84841;BME280;75088;53.114;18.040;2024-01-15T00:39:22;98777.07;;;1.23;81.55
84841;BME280;75088;53.114;18.040;2024-01-15T00:40:29;98780.92;;;1.21;81.34
84841;BME280;75088;53.114;18.040;2024-01-15T00:41:36;98777.79;;;1.18;81.56
84841;BME280;75088;53.114;18.040;2024-01-15T00:42:43;98777.09;;;1.18;81.74
84841;BME280;75088;53.114;18.040;2024-01-15T00:43:50;98774.64;;;1.18;81.65
84841;BME280;75088;53.114;18.040;2024-01-15T00:44:57;98776.21;;;1.18;81.64
84841;BME280;75088;53.114;18.040;2024-01-15T00:46:04;98769.57;;;1.19;81.55
84841;BME280;75088;53.114;18.040;2024-01-15T00:47:11;98771.13;;;1.20;81.59
84841;BME280;75088;53.114;18.040;2024-01-15T00:48:18;98769.38;;;1.21;81.54
84841;BME280;75088;53.114;18.040;2024-01-15T00:49:26;98766.75;;;1.23;81.47
84841;BME280;75088;53.114;18.040;2024-01-15T00:50:34;98761.33;;;1.23;81.37
84841;BME280;75088;53.114;18.040;2024-01-15T00:51:41;98759.04;;;1.26;81.37
84841;BME280;75088;53.114;18.040;2024-01-15T00:52:48;98763.23;;;1.27;81.34
84841;BME280;75088;53.114;18.040;2024-01-15T00:53:55;98758.52;;;1.28;81.37
84841;BME280;75088;53.114;18.040;2024-01-15T00:55:03;98755.53;;;1.28;81.40
84841;BME280;75088;53.114;18.040;2024-01-15T00:56:10;98758.69;;;1.26;81.62
84841;BME280;75088;53.114;18.040;2024-01-15T00:57:16;98753.62;;;1.25;81.57
84841;BME280;75088;53.114;18.040;2024-01-15T00:58:24;98745.05;;;1.26;81.48
84841;BME280;75088;53.114;18.040;2024-01-15T00:59:32;98739.10;;;1.25;81.59
84841;BME280;75088;53.114;18.040;2024-01-15T01:00:39;98741.02;;;1.25;81.42
84841;BME280;75088;53.114;18.040;2024-01-15T01:01:47;98739.63;;;1.26;81.97
84841;BME280;75088;53.114;18.040;2024-01-15T01:02:53;98738.92;;;1.27;81.59
84841;BME280;75088;53.114;18.040;2024-01-15T01:04:00;98734.72;;;1.28;81.68
84841;BME280;75088;53.114;18.040;2024-01-15T01:05:08;98734.02;;;1.28;81.49
84841;BME280;75088;53.114;18.040;2024-01-15T01:06:15;98734.20;;;1.28;81.20
84841;BME280;75088;53.114;18.040;2024-01-15T01:07:22;98738.22;;;1.28;81.36
84841;BME280;75088;53.114;18.040;2024-01-15T01:08:29;98732.61;;;1.29;81.52
84841;BME280;75088;53.114;18.040;2024-01-15T01:09:36;98725.09;;;1.30;81.53
84841;BME280;75088;53.114;18.040;2024-01-15T01:10:43;98727.54;;;1.31;81.58
84841;BME280;75088;53.114;18.040;2024-01-15T01:11:50;98722.63;;;1.32;81.46
84841;BME280;75088;53.114;18.040;2024-01-15T01:12:57;98718.24;;;1.33;81.28
84841;BME280;75088;53.114;18.040;2024-01-15T01:14:04;98714.39;;;1.33;81.45
84841;BME280;75088;53.114;18.040;2024-01-15T01:15:12;98711.42;;;1.32;81.49
84841;BME280;75088;53.114;18.040;2024-01-15T01:16:19;98710.91;;;1.32;81.35
84841;BME280;75088;53.114;18.040;2024-01-15T01:17:26;98712.30;;;1.34;81.34
84841;BME280;75088;53.114;18.040;2024-01-15T01:18:33;98708.97;;;1.34;81.35
84841;BME280;75088;53.114;18.040;2024-01-15T01:19:40;98707.74;;;1.35;81.68
84841;BME280;75088;53.114;18.040;2024-01-15T01:20:47;98705.30;;;1.35;81.40
84841;BME280;75088;53.114;18.040;2024-01-15T01:21:54;98700.22;;;1.35;81.49
84841;BME280;75088;53.114;18.040;2024-01-15T01:23:01;98704.06;;;1.36;81.49
84841;BME280;75088;53.114;18.040;2024-01-15T01:24:09;98702.84;;;1.35;81.30
84841;BME280;75088;53.114;18.040;2024-01-15T01:25:16;98710.20;;;1.34;81.50
84841;BME280;75088;53.114;18.040;2024-01-15T01:26:23;98705.12;;;1.34;81.34
84841;BME280;75088;53.114;18.040;2024-01-15T01:27:30;98699.87;;;1.34;81.48
84841;BME280;75088;53.114;18.040;2024-01-15T01:28:37;98702.32;;;1.34;81.32
84841;BME280;75088;53.114;18.040;2024-01-15T01:29:43;98699.87;;;1.35;81.51
84841;BME280;75088;53.114;18.040;2024-01-15T01:30:50;98699.52;;;1.35;81.31
84841;BME280;75088;53.114;18.040;2024-01-15T01:31:57;98695.67;;;1.36;81.27
84841;BME280;75088;53.114;18.040;2024-01-15T01:33:04;98694.80;;;1.36;81.58
84841;BME280;75088;53.114;18.040;2024-01-15T01:34:13;98697.59;;;1.36;81.18
84841;BME280;75088;53.114;18.040;2024-01-15T01:35:20;98697.93;;;1.37;81.22
84841;BME280;75088;53.114;18.040;2024-01-15T01:36:27;98686.73;;;1.37;81.17
84841;BME280;75088;53.114;18.040;2024-01-15T01:37:34;98689.34;;;1.37;81.07
84841;BME280;75088;53.114;18.040;2024-01-15T01:38:43;98684.62;;;1.37;81.02
84841;BME280;75088;53.114;18.040;2024-01-15T01:39:50;98687.95;;;1.36;81.25
84841;BME280;75088;53.114;18.040;2024-01-15T01:40:57;98693.90;;;1.37;81.05
84841;BME280;75088;53.114;18.040;2024-01-15T01:42:04;98690.23;;;1.37;81.18
84841;BME280;75088;53.114;18.040;2024-01-15T01:43:11;98680.58;;;1.38;81.10
84841;BME280;75088;53.114;18.040;2024-01-15T01:44:18;98680.43;;;1.36;80.97
84841;BME280;75088;53.114;18.040;2024-01-15T01:45:25;98679.73;;;1.37;81.04
84841;BME280;75088;53.114;18.040;2024-01-15T01:46:32;98676.77;;;1.37;81.18
84841;BME280;75088;53.114;18.040;2024-01-15T01:47:45;98674.63;;;1.38;80.91
84841;BME280;75088;53.114;18.040;2024-01-15T01:48:52;98685.83;;;1.39;80.77
84841;BME280;75088;53.114;18.040;2024-01-15T01:49:58;98667.08;;;1.42;80.87
84841;BME280;75088;53.114;18.040;2024-01-15T01:51:06;98670.58;;;1.42;80.88
84841;BME280;75088;53.114;18.040;2024-01-15T01:52:14;98663.94;;;1.41;80.96
84841;BME280;75088;53.114;18.040;2024-01-15T01:53:22;98659.55;;;1.42;80.91
84841;BME280;75088;53.114;18.040;2024-01-15T01:54:31;98662.20;;;1.41;80.81
84841;BME280;75088;53.114;18.040;2024-01-15T01:55:39;98659.92;;;1.39;81.25
84841;BME280;75088;53.114;18.040;2024-01-15T01:56:48;98665.35;;;1.39;81.06
84841;BME280;75088;53.114;18.040;2024-01-15T01:57:56;98660.98;;;1.38;81.05
84841;BME280;75088;53.114;18.040;2024-01-15T01:59:03;98652.45;;;1.36;81.32
84841;BME280;75088;53.114;18.040;2024-01-15T02:00:14;98653.86;;;1.34;81.37
84841;BME280;75088;53.114;18.040;2024-01-15T02:01:22;98649.85;;;1.33;81.16
84841;BME280;75088;53.114;18.040;2024-01-15T02:02:29;98645.65;;;1.33;81.29
84841;BME280;75088;53.114;18.040;2024-01-15T02:03:36;98641.82;;;1.32;81.26
84841;BME280;75088;53.114;18.040;2024-01-15T02:04:43;98643.94;;;1.29;81.48
84841;BME280;75088;53.114;18.040;2024-01-15T02:05:52;98641.83;;;1.30;81.36
84841;BME280;75088;53.114;18.040;2024-01-15T02:07:00;98641.31;;;1.28;81.42
84841;BME280;75088;53.114;18.040;2024-01-15T02:08:07;98634.51;;;1.27;81.68
84841;BME280;75088;53.114;18.040;2024-01-15T02:09:14;98630.84;;;1.26;81.36
84841;BME280;75088;53.114;18.040;2024-01-15T02:10:22;98634.52;;;1.25;81.62
84841;BME280;75088;53.114;18.040;2024-01-15T02:11:29;98625.77;;;1.23;81.51
84841;BME280;75088;53.114;18.040;2024-01-15T02:12:36;98621.77;;;1.22;81.87
84841;BME280;75088;53.114;18.040;2024-01-15T02:13:43;98627.02;;;1.22;81.53
84841;BME280;75088;53.114;18.040;2024-01-15T02:14:50;98627.55;;;1.21;81.62
84841;BME280;75088;53.114;18.040;2024-01-15T02:15:57;98629.30;;;1.21;81.45
84841;BME280;75088;53.114;18.040;2024-01-15T02:17:05;98629.12;;;1.20;81.48
84841;BME280;75088;53.114;18.040;2024-01-15T02:18:11;98622.31;;;1.19;81.54
84841;BME280;75088;53.114;18.040;2024-01-15T02:19:19;98617.94;;;1.19;81.59
84841;BME280;75088;53.114;18.040;2024-01-15T02:20:26;98613.75;;;1.18;81.44
84841;BME280;75088;53.114;18.040;2024-01-15T02:21:35;98623.89;;;1.18;81.72
84841;BME280;75088;53.114;18.040;2024-01-15T02:22:42;98619.88;;;1.18;81.15
84841;BME280;75088;53.114;18.040;2024-01-15T02:23:49;98612.17;;;1.19;81.40
84841;BME280;75088;53.114;18.040;2024-01-15T02:24:56;98609.90;;;1.18;81.39
84841;BME280;75088;53.114;18.040;2024-01-15T02:26:03;98612.88;;;1.19;81.43
84841;BME280;75088;53.114;18.040;2024-01-15T02:27:11;98609.55;;;1.18;81.26
84841;BME280;75088;53.114;18.040;2024-01-15T02:28:19;98608.15;;;1.18;81.47
84841;BME280;75088;53.114;18.040;2024-01-15T02:29:26;98611.30;;;1.19;81.36
84841;BME280;75088;53.114;18.040;2024-01-15T02:30:33;98605.88;;;1.20;81.27
84841;BME280;75088;53.114;18.040;2024-01-15T02:31:41;98604.99;;;1.20;81.51
84841;BME280;75088;53.114;18.040;2024-01-15T02:32:48;98605.69;;;1.21;81.27
84841;BME280;75088;53.114;18.040;2024-01-15T02:33:55;98618.11;;;1.18;81.46
84841;BME280;75088;53.114;18.040;2024-01-15T02:35:03;98588.90;;;1.21;81.20
84841;BME280;75088;53.114;18.040;2024-01-15T02:36:10;98595.20;;;1.21;81.03
84841;BME280;75088;53.114;18.040;2024-01-15T02:37:17;98597.13;;;1.20;80.96
84841;BME280;75088;53.114;18.040;2024-01-15T02:38:24;98588.55;;;1.20;81.18
84841;BME280;75088;53.114;18.040;2024-01-15T02:39:32;98605.17;;;1.19;81.25
84841;BME280;75088;53.114;18.040;2024-01-15T02:40:39;98592.59;;;1.18;81.29
84841;BME280;75088;53.114;18.040;2024-01-15T02:41:47;98599.23;;;1.18;81.04
84841;BME280;75088;53.114;18.040;2024-01-15T02:42:53;98585.59;;;1.18;81.17
84841;BME280;75088;53.114;18.040;2024-01-15T02:44:00;98589.98;;;1.18;81.07
84841;BME280;75088;53.114;18.040;2024-01-15T02:45:08;98594.16;;;1.19;80.86
84841;BME280;75088;53.114;18.040;2024-01-15T02:46:15;98596.95;;;1.19;81.07
84841;BME280;75088;53.114;18.040;2024-01-15T02:47:22;98593.11;;;1.18;80.69
84841;BME280;75088;53.114;18.040;2024-01-15T02:48:29;98585.94;;;1.19;81.01
84841;BME280;75088;53.114;18.040;2024-01-15T02:49:36;98584.71;;;1.19;81.07
84841;BME280;75088;53.114;18.040;2024-01-15T02:50:43;98588.20;;;1.19;80.96
84841;BME280;75088;53.114;18.040;2024-01-15T02:51:50;98583.84;;;1.19;80.93
84841;BME280;75088;53.114;18.040;2024-01-15T02:52:57;98578.59;;;1.20;81.19
84841;BME280;75088;53.114;18.040;2024-01-15T02:54:04;98578.77;;;1.19;80.85
84841;BME280;75088;53.114;18.040;2024-01-15T02:55:11;98574.73;;;1.20;80.90
84841;BME280;75088;53.114;18.040;2024-01-15T02:56:18;98571.23;;;1.20;81.08
84841;BME280;75088;53.114;18.040;2024-01-15T02:57:25;98578.07;;;1.20;80.93
84841;BME280;75088;53.114;18.040;2024-01-15T02:58:32;98570.90;;;1.19;81.28
84841;BME280;75088;53.114;18.040;2024-01-15T02:59:39;98564.08;;;1.19;81.01
84841;BME280;75088;53.114;18.040;2024-01-15T03:00:46;98571.43;;;1.18;81.10
84841;BME280;75088;53.114;18.040;2024-01-15T03:01:53;98559.20;;;1.17;81.11
84841;BME280;75088;53.114;18.040;2024-01-15T03:03:00;98560.77;;;1.17;81.25
84841;BME280;75088;53.114;18.040;2024-01-15T03:04:08;98562.88;;;1.16;81.11
84841;BME280;75088;53.114;18.040;2024-01-15T03:05:15;98563.58;;;1.16;81.16
84841;BME280;75088;53.114;18.040;2024-01-15T03:06:22;98564.98;;;1.16;81.24
84841;BME280;75088;53.114;18.040;2024-01-15T03:07:29;98554.48;;;1.16;81.21
84841;BME280;75088;53.114;18.040;2024-01-15T03:08:36;98553.79;;;1.16;81.19
84841;BME280;75088;53.114;18.040;2024-01-15T03:09:43;98554.84;;;1.16;81.27
84841;BME280;75088;53.114;18.040;2024-01-15T03:10:50;98553.09;;;1.15;81.10
84841;BME280;75088;53.114;18.040;2024-01-15T03:11:57;98552.91;;;1.15;81.28
84841;BME280;75088;53.114;18.040;2024-01-15T03:13:04;98554.14;;;1.15;81.20
84841;BME280;75088;53.114;18.040;2024-01-15T03:14:11;98542.95;;;1.14;81.11
84841;BME280;75088;53.114;18.040;2024-01-15T03:15:18;98546.63;;;1.14;81.03
84841;BME280;75088;53.114;18.040;2024-01-15T03:16:25;98543.66;;;1.14;81.32
84841;BME280;75088;53.114;18.040;2024-01-15T03:17:32;98543.31;;;1.14;81.30
84841;BME280;75088;53.114;18.040;2024-01-15T03:18:39;98541.91;;;1.13;81.04
84841;BME280;75088;53.114;18.040;2024-01-15T03:19:46;98541.05;;;1.13;81.14
84841;BME280;75088;53.114;18.040;2024-01-15T03:20:55;98535.80;;;1.12;81.26
84841;BME280;75088;53.114;18.040;2024-01-15T03:22:02;98537.73;;;1.11;81.36
84841;BME280;75088;53.114;18.040;2024-01-15T03:23:09;98532.33;;;1.10;81.30
84841;BME280;75088;53.114;18.040;2024-01-15T03:24:16;98526.39;;;1.10;81.22
84841;BME280;75088;53.114;18.040;2024-01-15T03:25:23;98524.66;;;1.09;81.61
84841;BME280;75088;53.114;18.040;2024-01-15T03:26:30;98524.51;;;1.07;81.55
84841;BME280;75088;53.114;18.040;2024-01-15T03:27:37;98517.69;;;1.07;81.48
84841;BME280;75088;53.114;18.040;2024-01-15T03:28:44;98514.90;;;1.06;81.60
84841;BME280;75088;53.114;18.040;2024-01-15T03:29:50;98524.36;;;1.05;81.68
84841;BME280;75088;53.114;18.040;2024-01-15T03:30:57;98516.14;;;1.04;81.75
84841;BME280;75088;53.114;18.040;2024-01-15T03:32:05;98522.09;;;1.03;81.76
84841;BME280;75088;53.114;18.040;2024-01-15T03:33:12;98518.95;;;1.02;81.92
84841;BME280;75088;53.114;18.040;2024-01-15T03:34:21;98512.31;;;1.02;81.72
84841;BME280;75088;53.114;18.040;2024-01-15T03:35:28;98513.71;;;1.01;81.83
84841;BME280;75088;53.114;18.040;2024-01-15T03:36:36;98511.80;;;1.01;81.65
84841;BME280;75088;53.114;18.040;2024-01-15T03:37:44;98510.23;;;1.00;81.87
84841;BME280;75088;53.114;18.040;2024-01-15T03:38:51;98507.77;;;1.00;82.07
84841;BME280;75088;53.114;18.040;2024-01-15T03:39:58;98510.23;;;0.99;82.09
84841;BME280;75088;53.114;18.040;2024-01-15T03:41:05;98508.30;;;0.99;81.80
84841;BME280;75088;53.114;18.040;2024-01-15T03:42:12;98505.16;;;0.99;81.99
84841;BME280;75088;53.114;18.040;2024-01-15T03:43:20;98503.77;;;0.98;81.63
84841;BME280;75088;53.114;18.040;2024-01-15T03:44:26;98506.58;;;0.98;81.95
84841;BME280;75088;53.114;18.040;2024-01-15T03:45:34;98503.77;;;0.98;81.97
84841;BME280;75088;53.114;18.040;2024-01-15T03:46:40;98500.80;;;0.98;81.99
84841;BME280;75088;53.114;18.040;2024-01-15T03:47:48;98497.82;;;0.98;81.83
84841;BME280;75088;53.114;18.040;2024-01-15T03:48:55;98497.30;;;0.98;81.88
84841;BME280;75088;53.114;18.040;2024-01-15T03:50:02;98498.36;;;0.96;82.24
84841;BME280;75088;53.114;18.040;2024-01-15T03:51:09;98495.57;;;0.96;82.13
84841;BME280;75088;53.114;18.040;2024-01-15T03:52:16;98494.35;;;0.94;82.10
84841;BME280;75088;53.114;18.040;2024-01-15T03:53:23;98496.29;;;0.93;82.10
84841;BME280;75088;53.114;18.040;2024-01-15T03:54:30;98492.46;;;0.91;82.29
84841;BME280;75088;53.114;18.040;2024-01-15T03:55:37;98487.92;;;0.90;82.01
84841;BME280;75088;53.114;18.040;2024-01-15T03:56:44;98486.71;;;0.89;81.96
84841;BME280;75088;53.114;18.040;2024-01-15T03:57:51;98487.41;;;0.89;82.24
84841;BME280;75088;53.114;18.040;2024-01-15T03:58:57;98490.39;;;0.88;82.24
84841;BME280;75088;53.114;18.040;2024-01-15T04:00:06;98486.02;;;0.88;82.30
84841;BME280;75088;53.114;18.040;2024-01-15T04:01:14;98482.88;;;0.87;82.17
84841;BME280;75088;53.114;18.040;2024-01-15T04:02:20;98481.66;;;0.86;82.47
84841;BME280;75088;53.114;18.040;2024-01-15T04:03:27;98484.30;;;0.84;82.55
84841;BME280;75088;53.114;18.040;2024-01-15T04:04:34;98482.38;;;0.83;82.22
84841;BME280;75088;53.114;18.040;2024-01-15T04:05:41;98476.64;;;0.82;82.36
84841;BME280;75088;53.114;18.040;2024-01-15T04:06:48;98478.23;;;0.81;82.47
84841;BME280;75088;53.114;18.040;2024-01-15T04:07:55;98471.77;;;0.80;82.64
84841;BME280;75088;53.114;18.040;2024-01-15T04:09:02;98476.15;;;0.80;82.41
84841;BME280;75088;53.114;18.040;2024-01-15T04:10:10;98473.55;;;0.78;82.46
84841;BME280;75088;53.114;18.040;2024-01-15T04:11:17;98473.55;;;0.76;82.67
84841;BME280;75088;53.114;18.040;2024-01-15T04:12:23;98469.02;;;0.76;82.63
84841;BME280;75088;53.114;18.040;2024-01-15T04:13:33;98466.74;;;0.76;82.63
84841;BME280;75088;53.114;18.040;2024-01-15T04:14:40;98473.73;;;0.75;82.66
84841;BME280;75088;53.114;18.040;2024-01-15T04:15:47;98468.84;;;0.76;82.56
84841;BME280;75088;53.114;18.040;2024-01-15T04:16:54;98469.53;;;0.77;82.67
84841;BME280;75088;53.114;18.040;2024-01-15T04:18:01;98474.08;;;0.77;82.72
84841;BME280;75088;53.114;18.040;2024-01-15T04:19:08;98476.52;;;0.76;82.76
84841;BME280;75088;53.114;18.040;2024-01-15T04:20:16;98475.32;;;0.75;82.54
84841;BME280;75088;53.114;18.040;2024-01-15T04:21:23;98472.18;;;0.73;82.93
84841;BME280;75088;53.114;18.040;2024-01-15T04:22:30;98475.67;;;0.73;82.92
84841;BME280;75088;53.114;18.040;2024-01-15T04:23:37;98469.91;;;0.73;82.91
84841;BME280;75088;53.114;18.040;2024-01-15T04:24:43;98472.70;;;0.74;82.99
84841;BME280;75088;53.114;18.040;2024-01-15T04:25:50;98470.60;;;0.74;83.05
84841;BME280;75088;53.114;18.040;2024-01-15T04:26:57;98471.64;;;0.75;82.55
84841;BME280;75088;53.114;18.040;2024-01-15T04:28:07;98468.48;;;0.76;82.64
84841;BME280;75088;53.114;18.040;2024-01-15T04:29:15;98485.95;;;0.77;81.83
84841;BME280;75088;53.114;18.040;2024-01-15T04:30:22;98463.89;;;0.81;81.36
84841;BME280;75088;53.114;18.040;2024-01-15T04:31:29;98465.95;;;0.83;81.46
84841;BME280;75088;53.114;18.040;2024-01-15T04:32:36;98476.27;;;0.83;81.04
84841;BME280;75088;53.114;18.040;2024-01-15T04:33:43;98470.14;;;0.84;81.08
84841;BME280;75088;53.114;18.040;2024-01-15T04:34:50;98455.81;;;0.85;81.08
84841;BME280;75088;53.114;18.040;2024-01-15T04:35:57;98451.61;;;0.84;81.06
84841;BME280;75088;53.114;18.040;2024-01-15T04:37:07;98466.66;;;0.83;81.34
84841;BME280;75088;53.114;18.040;2024-01-15T04:38:14;98453.05;;;0.82;81.41
84841;BME280;75088;53.114;18.040;2024-01-15T04:39:25;98454.95;;;0.83;81.41
84841;BME280;75088;53.114;18.040;2024-01-15T04:40:33;98456.04;;;0.81;81.99
84841;BME280;75088;53.114;18.040;2024-01-15T04:41:40;98457.96;;;0.80;81.84
84841;BME280;75088;53.114;18.040;2024-01-15T04:42:47;98443.30;;;0.79;81.82
84841;BME280;75088;53.114;18.040;2024-01-15T04:43:54;98446.98;;;0.79;81.72
84841;BME280;75088;53.114;18.040;2024-01-15T04:45:01;98444.37;;;0.77;81.63
84841;BME280;75088;53.114;18.040;2024-01-15T04:46:10;98447.52;;;0.77;81.78
84841;BME280;75088;53.114;18.040;2024-01-15T04:47:17;98452.23;;;0.76;81.80
84841;BME280;75088;53.114;18.040;2024-01-15T04:48:24;98446.83;;;0.76;81.74
84841;BME280;75088;53.114;18.040;2024-01-15T04:49:31;98444.02;;;0.76;81.84
84841;BME280;75088;53.114;18.040;2024-01-15T04:50:38;98451.02;;;0.75;82.05
84841;BME280;75088;53.114;18.040;2024-01-15T04:51:45;98444.04;;;0.74;82.26
84841;BME280;75088;53.114;18.040;2024-01-15T04:52:52;98445.80;;;0.73;82.10
84841;BME280;75088;53.114;18.040;2024-01-15T04:53:59;98442.66;;;0.72;82.27
84841;BME280;75088;53.114;18.040;2024-01-15T04:55:06;98441.61;;;0.72;82.59
84841;BME280;75088;53.114;18.040;2024-01-15T04:56:13;98434.63;;;0.71;82.41
84841;BME280;75088;53.114;18.040;2024-01-15T04:57:20;98446.52;;;0.70;82.45
84841;BME280;75088;53.114;18.040;2024-01-15T04:58:27;98439.19;;;0.69;82.16
84841;BME280;75088;53.114;18.040;2024-01-15T04:59:35;98446.88;;;0.69;82.43
84841;BME280;75088;53.114;18.040;2024-01-15T05:00:41;98441.45;;;0.69;82.09
84841;BME280;75088;53.114;18.040;2024-01-15T05:01:48;98444.25;;;0.69;81.95
84841;BME280;75088;53.114;18.040;2024-01-15T05:02:55;98448.98;;;0.69;81.89
84841;BME280;75088;53.114;18.040;2024-01-15T05:04:03;98452.30;;;0.69;82.11
84841;BME280;75088;53.114;18.040;2024-01-15T05:05:10;98443.71;;;0.70;82.17
84841;BME280;75088;53.114;18.040;2024-01-15T05:06:17;98440.92;;;0.72;81.75
84841;BME280;75088;53.114;18.040;2024-01-15T05:07:24;98450.17;;;0.72;82.02
84841;BME280;75088;53.114;18.040;2024-01-15T05:08:31;98455.93;;;0.73;81.52
84841;BME280;75088;53.114;18.040;2024-01-15T05:09:38;98457.84;;;0.76;80.99
84841;BME280;75088;53.114;18.040;2024-01-15T05:10:45;98441.39;;;0.78;80.87
84841;BME280;75088;53.114;18.040;2024-01-15T05:11:52;98449.94;;;0.79;81.00
84841;BME280;75088;53.114;18.040;2024-01-15T05:12:59;98440.51;;;0.79;80.90
84841;BME280;75088;53.114;18.040;2024-01-15T05:14:06;98442.43;;;0.78;81.06
84841;BME280;75088;53.114;18.040;2024-01-15T05:15:13;98448.73;;;0.77;80.54
84841;BME280;75088;53.114;18.040;2024-01-15T05:16:20;98442.97;;;0.77;80.10
84841;BME280;75088;53.114;18.040;2024-01-15T05:17:27;98435.83;;;0.75;79.79
84841;BME280;75088;53.114;18.040;2024-01-15T05:18:34;98441.06;;;0.74;79.39
84841;BME280;75088;53.114;18.040;2024-01-15T05:19:42;98452.08;;;0.74;79.47
84841;BME280;75088;53.114;18.040;2024-01-15T05:20:50;98454.19;;;0.74;78.93
84841;BME280;75088;53.114;18.040;2024-01-15T05:21:58;98441.77;;;0.74;78.93
84841;BME280;75088;53.114;18.040;2024-01-15T05:23:05;98444.56;;;0.74;79.04
84841;BME280;75088;53.114;18.040;2024-01-15T05:24:12;98449.46;;;0.73;79.09
84841;BME280;75088;53.114;18.040;2024-01-15T05:25:19;98445.29;;;0.71;79.09
84841;BME280;75088;53.114;18.040;2024-01-15T05:26:26;98451.41;;;0.70;78.90
84841;BME280;75088;53.114;18.040;2024-01-15T05:27:33;98443.55;;;0.69;78.36
84841;BME280;75088;53.114;18.040;2024-01-15T05:28:42;98441.98;;;0.70;78.65
84841;BME280;75088;53.114;18.040;2024-01-15T05:29:49;98441.81;;;0.68;79.10
84841;BME280;75088;53.114;18.040;2024-01-15T05:30:56;98445.14;;;0.67;78.72
84841;BME280;75088;53.114;18.040;2024-01-15T05:32:03;98442.52;;;0.66;78.80
84841;BME280;75088;53.114;18.040;2024-01-15T05:33:10;98446.38;;;0.65;78.96
84841;BME280;75088;53.114;18.040;2024-01-15T05:34:17;98450.23;;;0.65;79.10
84841;BME280;75088;53.114;18.040;2024-01-15T05:35:24;98451.09;;;0.65;79.04
84841;BME280;75088;53.114;18.040;2024-01-15T05:36:31;98454.24;;;0.65;79.18
84841;BME280;75088;53.114;18.040;2024-01-15T05:37:38;98449.88;;;0.64;79.09
84841;BME280;75088;53.114;18.040;2024-01-15T05:38:45;98442.36;;;0.65;79.07
84841;BME280;75088;53.114;18.040;2024-01-15T05:39:52;98447.60;;;0.65;78.95
84841;BME280;75088;53.114;18.040;2024-01-15T05:40:58;98436.75;;;0.67;78.95
84841;BME280;75088;53.114;18.040;2024-01-15T05:42:06;98441.81;;;0.68;78.74
84841;BME280;75088;53.114;18.040;2024-01-15T05:43:13;98439.00;;;0.71;79.00
84841;BME280;75088;53.114;18.040;2024-01-15T05:44:20;98436.56;;;0.70;78.75
84841;BME280;75088;53.114;18.040;2024-01-15T05:45:27;98433.92;;;0.71;78.81
84841;BME280;75088;53.114;18.040;2024-01-15T05:46:34;98436.90;;;0.71;78.82
84841;BME280;75088;53.114;18.040;2024-01-15T05:47:41;98434.98;;;0.71;78.62
84841;BME280;75088;53.114;18.040;2024-01-15T05:48:49;98433.23;;;0.71;78.67
84841;BME280;75088;53.114;18.040;2024-01-15T05:49:57;98433.57;;;0.72;78.96
84841;BME280;75088;53.114;18.040;2024-01-15T05:51:05;98437.23;;;0.73;78.88
84841;BME280;75088;53.114;18.040;2024-01-15T05:52:12;98431.81;;;0.73;78.70
84841;BME280;75088;53.114;18.040;2024-01-15T05:53:18;98435.13;;;0.73;78.89
84841;BME280;75088;53.114;18.040;2024-01-15T05:54:26;98433.57;;;0.72;78.74
84841;BME280;75088;53.114;18.040;2024-01-15T05:55:33;98427.80;;;0.72;79.12
84841;BME280;75088;53.114;18.040;2024-01-15T05:56:40;98445.30;;;0.69;78.75